sensor_id;sensor_type;location;lat;lon;timestamp;P1;durP1;ratioP1;P2;durP2;ratioP2
10727;SDS011;5415;59.322;18.246;2022-10-04T00:01:22;5.90;;;3.33;;
10727;SDS011;5415;59.322;18.246;2022-10-04T00:03:51;8.00;;;3.27;;
10727;SDS011;5415;59.322;18.246;2022-10-04T00:06:22;4.30;;;2.60;;
10727;SDS011;5415;59.322;18.246;2022-10-04T00:08:51;3.20;;;2.70;;
10727;SDS011;5415;59.322;18.246;2022-10-04T00:11:21;4.73;;;3.13;;
10727;SDS011;5415;59.322;18.246;2022-10-04T00:13:51;5.47;;;2.60;;
10727;SDS011;5415;59.322;18.246;2022-10-04T00:16:25;7.07;;;2.73;;
10727;SDS011;5415;59.322;18.246;2022-10-04T00:19:00;3.27;;;2.73;;
10727;SDS011;5415;59.322;18.246;2022-10-04T00:24:18;5.53;;;2.50;;
10727;SDS011;5415;59.322;18.246;2022-10-04T00:29:35;6.30;;;2.53;;
10727;SDS011;5415;59.322;18.246;2022-10-04T00:32:23;3.67;;;2.80;;
10727;SDS011;5415;59.322;18.246;2022-10-04T00:34:52;6.40;;;2.83;;
10727;SDS011;5415;59.322;18.246;2022-10-04T00:37:19;6.43;;;2.60;;
10727;SDS011;5415;59.322;18.246;2022-10-04T00:39:56;3.17;;;2.07;;
10727;SDS011;5415;59.322;18.246;2022-10-04T00:42:35;4.13;;;2.33;;
10727;SDS011;5415;59.322;18.246;2022-10-04T00:45:09;2.87;;;2.40;;
10727;SDS011;5415;59.322;18.246;2022-10-04T00:47:51;4.47;;;2.17;;
10727;SDS011;5415;59.322;18.246;2022-10-04T00:50:21;4.17;;;2.67;;
10727;SDS011;5415;59.322;18.246;2022-10-04T00:52:52;4.17;;;2.33;;
10727;SDS011;5415;59.322;18.246;2022-10-04T00:55:23;3.80;;;2.40;;
10727;SDS011;5415;59.322;18.246;2022-10-04T00:57:53;7.23;;;2.30;;
10727;SDS011;5415;59.322;18.246;2022-10-04T01:00:22;3.63;;;2.10;;
10727;SDS011;5415;59.322;18.246;2022-10-04T01:02:51;5.47;;;2.50;;
10727;SDS011;5415;59.322;18.246;2022-10-04T01:05:20;2.97;;;2.13;;
10727;SDS011;5415;59.322;18.246;2022-10-04T01:07:51;2.83;;;2.30;;
10727;SDS011;5415;59.322;18.246;2022-10-04T01:10:20;3.97;;;2.50;;
10727;SDS011;5415;59.322;18.246;2022-10-04T01:12:50;3.33;;;1.97;;
10727;SDS011;5415;59.322;18.246;2022-10-04T01:15:22;3.40;;;2.40;;
10727;SDS011;5415;59.322;18.246;2022-10-04T01:18:06;4.33;;;2.10;;
10727;SDS011;5415;59.322;18.246;2022-10-04T01:20:34;5.63;;;2.40;;
10727;SDS011;5415;59.322;18.246;2022-10-04T01:23:06;6.07;;;2.37;;
10727;SDS011;5415;59.322;18.246;2022-10-04T01:25:45;4.00;;;2.07;;
10727;SDS011;5415;59.322;18.246;2022-10-04T01:28:12;5.97;;;2.23;;
10727;SDS011;5415;59.322;18.246;2022-10-04T01:30:40;5.17;;;2.33;;
10727;SDS011;5415;59.322;18.246;2022-10-04T01:33:08;3.00;;;1.77;;
10727;SDS011;5415;59.322;18.246;2022-10-04T01:35:36;6.47;;;2.13;;
10727;SDS011;5415;59.322;18.246;2022-10-04T01:38:03;3.83;;;2.17;;
10727;SDS011;5415;59.322;18.246;2022-10-04T01:40:33;5.33;;;2.67;;
10727;SDS011;5415;59.322;18.246;2022-10-04T01:43:03;3.53;;;2.00;;
10727;SDS011;5415;59.322;18.246;2022-10-04T01:45:34;3.90;;;2.13;;
10727;SDS011;5415;59.322;18.246;2022-10-04T01:48:06;2.33;;;2.00;;
10727;SDS011;5415;59.322;18.246;2022-10-04T01:50:35;4.83;;;1.90;;
10727;SDS011;5415;59.322;18.246;2022-10-04T01:53:07;5.87;;;2.27;;
10727;SDS011;5415;59.322;18.246;2022-10-04T01:55:38;4.17;;;1.97;;
10727;SDS011;5415;59.322;18.246;2022-10-04T01:58:06;7.07;;;2.47;;
10727;SDS011;5415;59.322;18.246;2022-10-04T02:00:36;6.27;;;1.77;;
10727;SDS011;5415;59.322;18.246;2022-10-04T02:03:08;2.80;;;1.90;;
10727;SDS011;5415;59.322;18.246;2022-10-04T02:05:37;5.03;;;2.20;;
10727;SDS011;5415;59.322;18.246;2022-10-04T02:08:07;3.50;;;2.00;;
10727;SDS011;5415;59.322;18.246;2022-10-04T02:10:35;3.73;;;1.90;;
10727;SDS011;5415;59.322;18.246;2022-10-04T02:13:07;4.97;;;2.40;;
10727;SDS011;5415;59.322;18.246;2022-10-04T02:15:34;3.67;;;1.83;;
10727;SDS011;5415;59.322;18.246;2022-10-04T02:18:04;5.60;;;2.23;;
10727;SDS011;5415;59.322;18.246;2022-10-04T02:20:37;2.87;;;1.97;;
10727;SDS011;5415;59.322;18.246;2022-10-04T02:23:06;3.93;;;1.87;;
10727;SDS011;5415;59.322;18.246;2022-10-04T02:25:34;3.77;;;1.90;;
10727;SDS011;5415;59.322;18.246;2022-10-04T02:28:05;4.20;;;1.80;;
10727;SDS011;5415;59.322;18.246;2022-10-04T02:30:36;2.50;;;1.80;;
10727;SDS011;5415;59.322;18.246;2022-10-04T02:33:04;4.33;;;1.70;;
10727;SDS011;5415;59.322;18.246;2022-10-04T02:35:31;4.27;;;1.80;;
10727;SDS011;5415;59.322;18.246;2022-10-04T02:38:01;4.37;;;2.17;;
10727;SDS011;5415;59.322;18.246;2022-10-04T02:40:31;1.83;;;1.53;;
10727;SDS011;5415;59.322;18.246;2022-10-04T02:43:02;2.20;;;1.63;;
10727;SDS011;5415;59.322;18.246;2022-10-04T02:45:38;3.23;;;1.97;;
10727;SDS011;5415;59.322;18.246;2022-10-04T02:48:15;4.47;;;1.80;;
10727;SDS011;5415;59.322;18.246;2022-10-04T02:50:45;2.93;;;1.67;;
10727;SDS011;5415;59.322;18.246;2022-10-04T02:53:17;5.57;;;2.00;;
10727;SDS011;5415;59.322;18.246;2022-10-04T02:55:45;7.10;;;1.90;;
10727;SDS011;5415;59.322;18.246;2022-10-04T02:58:14;3.57;;;2.00;;
10727;SDS011;5415;59.322;18.246;2022-10-04T03:00:47;3.37;;;1.90;;
10727;SDS011;5415;59.322;18.246;2022-10-04T03:03:16;5.20;;;2.40;;
10727;SDS011;5415;59.322;18.246;2022-10-04T03:05:46;4.43;;;2.00;;
10727;SDS011;5415;59.322;18.246;2022-10-04T03:08:14;4.40;;;2.37;;
10727;SDS011;5415;59.322;18.246;2022-10-04T03:10:41;6.23;;;1.93;;
10727;SDS011;5415;59.322;18.246;2022-10-04T03:13:09;4.77;;;2.10;;
10727;SDS011;5415;59.322;18.246;2022-10-04T03:15:38;3.67;;;1.60;;
10727;SDS011;5415;59.322;18.246;2022-10-04T03:18:07;4.30;;;1.80;;
10727;SDS011;5415;59.322;18.246;2022-10-04T03:20:35;4.73;;;1.73;;
10727;SDS011;5415;59.322;18.246;2022-10-04T03:23:03;7.43;;;2.10;;
10727;SDS011;5415;59.322;18.246;2022-10-04T03:25:34;2.53;;;1.70;;
10727;SDS011;5415;59.322;18.246;2022-10-04T03:28:04;5.00;;;2.00;;
10727;SDS011;5415;59.322;18.246;2022-10-04T03:30:31;3.93;;;1.80;;
10727;SDS011;5415;59.322;18.246;2022-10-04T03:33:00;4.70;;;2.10;;
10727;SDS011;5415;59.322;18.246;2022-10-04T03:35:31;4.07;;;1.50;;
10727;SDS011;5415;59.322;18.246;2022-10-04T03:37:59;7.73;;;1.80;;
10727;SDS011;5415;59.322;18.246;2022-10-04T03:40:28;5.43;;;1.63;;
10727;SDS011;5415;59.322;18.246;2022-10-04T03:42:56;6.73;;;1.87;;
10727;SDS011;5415;59.322;18.246;2022-10-04T03:45:25;5.30;;;1.93;;
10727;SDS011;5415;59.322;18.246;2022-10-04T03:47:55;5.07;;;1.80;;
10727;SDS011;5415;59.322;18.246;2022-10-04T03:50:25;3.10;;;1.47;;
10727;SDS011;5415;59.322;18.246;2022-10-04T03:52:55;4.13;;;1.70;;
10727;SDS011;5415;59.322;18.246;2022-10-04T03:55:24;2.37;;;1.50;;
10727;SDS011;5415;59.322;18.246;2022-10-04T03:57:55;4.13;;;1.77;;
10727;SDS011;5415;59.322;18.246;2022-10-04T04:00:22;4.87;;;1.60;;
10727;SDS011;5415;59.322;18.246;2022-10-04T04:02:51;6.93;;;2.00;;
10727;SDS011;5415;59.322;18.246;2022-10-04T04:05:24;3.27;;;1.60;;
10727;SDS011;5415;59.322;18.246;2022-10-04T04:07:57;5.93;;;1.73;;
10727;SDS011;5415;59.322;18.246;2022-10-04T04:10:27;4.23;;;1.70;;
10727;SDS011;5415;59.322;18.246;2022-10-04T04:12:56;4.13;;;1.87;;
10727;SDS011;5415;59.322;18.246;2022-10-04T04:15:26;9.37;;;1.93;;
10727;SDS011;5415;59.322;18.246;2022-10-04T04:17:57;2.90;;;1.70;;
10727;SDS011;5415;59.322;18.246;2022-10-04T04:20:28;2.83;;;1.50;;
10727;SDS011;5415;59.322;18.246;2022-10-04T04:22:59;2.70;;;2.03;;
10727;SDS011;5415;59.322;18.246;2022-10-04T04:25:28;4.13;;;1.70;;
10727;SDS011;5415;59.322;18.246;2022-10-04T04:27:59;3.80;;;1.50;;
10727;SDS011;5415;59.322;18.246;2022-10-04T04:30:29;5.10;;;1.80;;
10727;SDS011;5415;59.322;18.246;2022-10-04T04:32:57;5.13;;;1.60;;
10727;SDS011;5415;59.322;18.246;2022-10-04T04:35:30;6.77;;;1.60;;
10727;SDS011;5415;59.322;18.246;2022-10-04T04:38:03;3.93;;;1.60;;
10727;SDS011;5415;59.322;18.246;2022-10-04T04:40:31;3.37;;;1.53;;
10727;SDS011;5415;59.322;18.246;2022-10-04T04:43:00;6.43;;;1.90;;
10727;SDS011;5415;59.322;18.246;2022-10-04T04:45:29;5.30;;;1.73;;
10727;SDS011;5415;59.322;18.246;2022-10-04T04:47:57;4.00;;;1.60;;
10727;SDS011;5415;59.322;18.246;2022-10-04T04:50:27;4.70;;;1.80;;
10727;SDS011;5415;59.322;18.246;2022-10-04T04:52:57;6.40;;;1.53;;
10727;SDS011;5415;59.322;18.246;2022-10-04T04:55:28;5.23;;;1.70;;
10727;SDS011;5415;59.322;18.246;2022-10-04T04:57:56;6.00;;;1.40;;
10727;SDS011;5415;59.322;18.246;2022-10-04T05:00:27;2.60;;;1.40;;
10727;SDS011;5415;59.322;18.246;2022-10-04T05:02:56;3.33;;;1.60;;
10727;SDS011;5415;59.322;18.246;2022-10-04T05:05:24;4.93;;;1.70;;
10727;SDS011;5415;59.322;18.246;2022-10-04T05:08:12;5.20;;;1.70;;
10727;SDS011;5415;59.322;18.246;2022-10-04T05:10:41;3.20;;;1.50;;
10727;SDS011;5415;59.322;18.246;2022-10-04T05:13:10;4.03;;;1.20;;
10727;SDS011;5415;59.322;18.246;2022-10-04T05:15:39;1.77;;;1.40;;
10727;SDS011;5415;59.322;18.246;2022-10-04T05:18:18;6.87;;;1.83;;
10727;SDS011;5415;59.322;18.246;2022-10-04T05:20:49;8.33;;;1.70;;
10727;SDS011;5415;59.322;18.246;2022-10-04T05:23:19;6.10;;;1.80;;
10727;SDS011;5415;59.322;18.246;2022-10-04T05:25:48;5.87;;;1.30;;
10727;SDS011;5415;59.322;18.246;2022-10-04T05:28:16;3.53;;;1.37;;
10727;SDS011;5415;59.322;18.246;2022-10-04T05:30:53;7.03;;;1.83;;
10727;SDS011;5415;59.322;18.246;2022-10-04T05:33:23;6.53;;;1.50;;
10727;SDS011;5415;59.322;18.246;2022-10-04T05:35:57;4.00;;;1.70;;
10727;SDS011;5415;59.322;18.246;2022-10-04T05:38:27;5.77;;;1.30;;
10727;SDS011;5415;59.322;18.246;2022-10-04T05:41:00;5.33;;;1.53;;
10727;SDS011;5415;59.322;18.246;2022-10-04T05:43:31;3.13;;;1.27;;
10727;SDS011;5415;59.322;18.246;2022-10-04T05:48:54;11.97;;;1.70;;
10727;SDS011;5415;59.322;18.246;2022-10-04T05:51:22;4.57;;;1.70;;
10727;SDS011;5415;59.322;18.246;2022-10-04T05:53:50;2.43;;;1.40;;
10727;SDS011;5415;59.322;18.246;2022-10-04T05:56:27;5.23;;;2.03;;
10727;SDS011;5415;59.322;18.246;2022-10-04T05:58:58;6.87;;;1.47;;
10727;SDS011;5415;59.322;18.246;2022-10-04T06:01:34;4.50;;;1.27;;
10727;SDS011;5415;59.322;18.246;2022-10-04T06:04:15;4.60;;;1.47;;
10727;SDS011;5415;59.322;18.246;2022-10-04T06:06:46;3.97;;;1.30;;
10727;SDS011;5415;59.322;18.246;2022-10-04T06:09:18;7.50;;;1.50;;
10727;SDS011;5415;59.322;18.246;2022-10-04T06:11:54;2.63;;;1.40;;
10727;SDS011;5415;59.322;18.246;2022-10-04T06:14:39;6.20;;;1.43;;
10727;SDS011;5415;59.322;18.246;2022-10-04T06:17:16;3.23;;;1.37;;
10727;SDS011;5415;59.322;18.246;2022-10-04T06:22:32;6.93;;;1.50;;
10727;SDS011;5415;59.322;18.246;2022-10-04T06:24:59;7.17;;;1.77;;
10727;SDS011;5415;59.322;18.246;2022-10-04T06:27:33;3.00;;;1.40;;
10727;SDS011;5415;59.322;18.246;2022-10-04T06:30:06;3.90;;;1.27;;
10727;SDS011;5415;59.322;18.246;2022-10-04T06:32:39;4.93;;;1.93;;
10727;SDS011;5415;59.322;18.246;2022-10-04T06:38:03;7.33;;;1.50;;
10727;SDS011;5415;59.322;18.246;2022-10-04T06:40:41;4.13;;;1.43;;
10727;SDS011;5415;59.322;18.246;2022-10-04T06:43:22;4.07;;;1.97;;
10727;SDS011;5415;59.322;18.246;2022-10-04T06:46:00;5.73;;;1.40;;
10727;SDS011;5415;59.322;18.246;2022-10-04T06:48:35;5.43;;;1.47;;
10727;SDS011;5415;59.322;18.246;2022-10-04T06:51:07;5.20;;;1.57;;
10727;SDS011;5415;59.322;18.246;2022-10-04T06:53:41;4.27;;;1.30;;
10727;SDS011;5415;59.322;18.246;2022-10-04T06:56:17;3.27;;;1.43;;
10727;SDS011;5415;59.322;18.246;2022-10-04T06:58:53;3.43;;;1.33;;
10727;SDS011;5415;59.322;18.246;2022-10-04T07:01:26;5.73;;;1.40;;
10727;SDS011;5415;59.322;18.246;2022-10-04T07:03:56;6.57;;;1.63;;
10727;SDS011;5415;59.322;18.246;2022-10-04T07:06:28;6.30;;;1.57;;
10727;SDS011;5415;59.322;18.246;2022-10-04T07:08:57;9.07;;;1.77;;
10727;SDS011;5415;59.322;18.246;2022-10-04T07:11:28;4.77;;;1.57;;
10727;SDS011;5415;59.322;18.246;2022-10-04T07:13:59;4.97;;;1.70;;
10727;SDS011;5415;59.322;18.246;2022-10-04T07:16:35;6.90;;;1.37;;
10727;SDS011;5415;59.322;18.246;2022-10-04T07:21:52;7.97;;;1.60;;
10727;SDS011;5415;59.322;18.246;2022-10-04T07:24:22;3.10;;;1.40;;
10727;SDS011;5415;59.322;18.246;2022-10-04T07:26:51;6.67;;;1.50;;
10727;SDS011;5415;59.322;18.246;2022-10-04T07:29:21;4.13;;;1.50;;
10727;SDS011;5415;59.322;18.246;2022-10-04T07:31:51;7.33;;;1.40;;
10727;SDS011;5415;59.322;18.246;2022-10-04T07:34:21;8.13;;;1.40;;
10727;SDS011;5415;59.322;18.246;2022-10-04T07:36:50;5.23;;;1.20;;
10727;SDS011;5415;59.322;18.246;2022-10-04T07:39:20;5.07;;;1.50;;
10727;SDS011;5415;59.322;18.246;2022-10-04T07:41:51;5.63;;;1.37;;
10727;SDS011;5415;59.322;18.246;2022-10-04T07:47:04;7.10;;;1.90;;
10727;SDS011;5415;59.322;18.246;2022-10-04T07:49:35;3.67;;;1.30;;
10727;SDS011;5415;59.322;18.246;2022-10-04T07:54:50;5.80;;;1.43;;
10727;SDS011;5415;59.322;18.246;2022-10-04T07:57:20;2.73;;;1.07;;
10727;SDS011;5415;59.322;18.246;2022-10-04T07:59:52;4.73;;;1.27;;
10727;SDS011;5415;59.322;18.246;2022-10-04T08:02:26;4.30;;;1.50;;
10727;SDS011;5415;59.322;18.246;2022-10-04T08:05:00;5.77;;;1.33;;
10727;SDS011;5415;59.322;18.246;2022-10-04T08:07:31;6.40;;;1.50;;
10727;SDS011;5415;59.322;18.246;2022-10-04T08:10:02;5.70;;;1.33;;
10727;SDS011;5415;59.322;18.246;2022-10-04T08:12:42;3.33;;;1.40;;
10727;SDS011;5415;59.322;18.246;2022-10-04T08:18:00;5.13;;;1.40;;
10727;SDS011;5415;59.322;18.246;2022-10-04T08:20:33;4.23;;;1.50;;
10727;SDS011;5415;59.322;18.246;2022-10-04T08:23:25;3.50;;;1.30;;
10727;SDS011;5415;59.322;18.246;2022-10-04T08:25:59;3.10;;;1.23;;
10727;SDS011;5415;59.322;18.246;2022-10-04T08:28:34;3.33;;;1.20;;
10727;SDS011;5415;59.322;18.246;2022-10-04T08:31:26;2.90;;;1.20;;
10727;SDS011;5415;59.322;18.246;2022-10-04T08:34:03;3.13;;;1.07;;
10727;SDS011;5415;59.322;18.246;2022-10-04T08:36:40;5.83;;;1.60;;
10727;SDS011;5415;59.322;18.246;2022-10-04T08:39:15;3.10;;;1.20;;
10727;SDS011;5415;59.322;18.246;2022-10-04T08:47:28;6.30;;;1.20;;
10727;SDS011;5415;59.322;18.246;2022-10-04T08:50:04;3.63;;;1.30;;
10727;SDS011;5415;59.322;18.246;2022-10-04T08:52:41;5.37;;;1.20;;
10727;SDS011;5415;59.322;18.246;2022-10-04T08:58:08;3.70;;;1.30;;
10727;SDS011;5415;59.322;18.246;2022-10-04T09:00:46;5.33;;;1.83;;
10727;SDS011;5415;59.322;18.246;2022-10-04T09:03:29;5.67;;;1.83;;
10727;SDS011;5415;59.322;18.246;2022-10-04T09:06:10;4.70;;;1.90;;
10727;SDS011;5415;59.322;18.246;2022-10-04T09:11:25;4.70;;;1.60;;
10727;SDS011;5415;59.322;18.246;2022-10-04T09:14:02;3.23;;;1.53;;
10727;SDS011;5415;59.322;18.246;2022-10-04T09:16:32;2.73;;;1.30;;
10727;SDS011;5415;59.322;18.246;2022-10-04T09:19:18;4.87;;;1.40;;
10727;SDS011;5415;59.322;18.246;2022-10-04T09:22:00;5.20;;;1.40;;
10727;SDS011;5415;59.322;18.246;2022-10-04T09:24:43;6.80;;;1.47;;
10727;SDS011;5415;59.322;18.246;2022-10-04T09:27:23;3.57;;;1.20;;
10727;SDS011;5415;59.322;18.246;2022-10-04T09:30:01;4.63;;;1.13;;
10727;SDS011;5415;59.322;18.246;2022-10-04T09:32:48;6.07;;;1.30;;
10727;SDS011;5415;59.322;18.246;2022-10-04T09:38:13;6.27;;;1.80;;
10727;SDS011;5415;59.322;18.246;2022-10-04T09:40:54;5.83;;;1.40;;
10727;SDS011;5415;59.322;18.246;2022-10-04T09:46:28;3.73;;;1.37;;
10727;SDS011;5415;59.322;18.246;2022-10-04T09:49:06;5.53;;;1.23;;
10727;SDS011;5415;59.322;18.246;2022-10-04T09:51:51;8.13;;;1.63;;
10727;SDS011;5415;59.322;18.246;2022-10-04T09:54:31;4.57;;;1.10;;
10727;SDS011;5415;59.322;18.246;2022-10-04T09:57:14;2.50;;;0.93;;
10727;SDS011;5415;59.322;18.246;2022-10-04T09:59:48;3.37;;;1.13;;
10727;SDS011;5415;59.322;18.246;2022-10-04T10:02:25;3.00;;;1.20;;
10727;SDS011;5415;59.322;18.246;2022-10-04T10:05:01;4.27;;;1.10;;
10727;SDS011;5415;59.322;18.246;2022-10-04T10:07:37;3.60;;;1.50;;
10727;SDS011;5415;59.322;18.246;2022-10-04T10:10:12;8.33;;;1.10;;
10727;SDS011;5415;59.322;18.246;2022-10-04T10:13:05;2.20;;;1.20;;
10727;SDS011;5415;59.322;18.246;2022-10-04T10:15:55;6.13;;;1.30;;
10727;SDS011;5415;59.322;18.246;2022-10-04T10:18:27;3.03;;;1.13;;
10727;SDS011;5415;59.322;18.246;2022-10-04T10:21:00;3.13;;;1.30;;
10727;SDS011;5415;59.322;18.246;2022-10-04T10:23:40;2.93;;;1.00;;
10727;SDS011;5415;59.322;18.246;2022-10-04T10:31:48;3.20;;;1.00;;
10727;SDS011;5415;59.322;18.246;2022-10-04T10:34:32;3.10;;;1.20;;
10727;SDS011;5415;59.322;18.246;2022-10-04T10:37:05;2.80;;;1.10;;
10727;SDS011;5415;59.322;18.246;2022-10-04T10:45:17;4.07;;;1.10;;
10727;SDS011;5415;59.322;18.246;2022-10-04T10:47:50;3.07;;;1.00;;
10727;SDS011;5415;59.322;18.246;2022-10-04T10:56:33;5.73;;;1.27;;
10727;SDS011;5415;59.322;18.246;2022-10-04T10:59:10;5.53;;;1.57;;
10727;SDS011;5415;59.322;18.246;2022-10-04T11:01:50;4.93;;;1.30;;
10727;SDS011;5415;59.322;18.246;2022-10-04T11:04:30;4.83;;;1.30;;
10727;SDS011;5415;59.322;18.246;2022-10-04T11:07:07;4.23;;;1.40;;
10727;SDS011;5415;59.322;18.246;2022-10-04T11:18:12;4.77;;;1.30;;
10727;SDS011;5415;59.322;18.246;2022-10-04T11:29:05;7.10;;;1.40;;
10727;SDS011;5415;59.322;18.246;2022-10-04T11:31:40;2.97;;;1.20;;
10727;SDS011;5415;59.322;18.246;2022-10-04T11:37:03;3.97;;;1.50;;
10727;SDS011;5415;59.322;18.246;2022-10-04T11:42:19;3.07;;;1.00;;
10727;SDS011;5415;59.322;18.246;2022-10-04T11:47:52;2.73;;;1.10;;
10727;SDS011;5415;59.322;18.246;2022-10-04T11:50:27;4.00;;;0.90;;
10727;SDS011;5415;59.322;18.246;2022-10-04T11:58:34;5.77;;;1.20;;
10727;SDS011;5415;59.322;18.246;2022-10-04T12:06:45;4.10;;;1.10;;
10727;SDS011;5415;59.322;18.246;2022-10-04T12:09:16;2.17;;;0.93;;
10727;SDS011;5415;59.322;18.246;2022-10-04T12:15:12;3.80;;;1.23;;
10727;SDS011;5415;59.322;18.246;2022-10-04T12:17:48;2.70;;;0.97;;
10727;SDS011;5415;59.322;18.246;2022-10-04T12:23:36;3.63;;;1.10;;
10727;SDS011;5415;59.322;18.246;2022-10-04T12:26:11;4.53;;;0.87;;
10727;SDS011;5415;59.322;18.246;2022-10-04T12:28:45;3.47;;;0.93;;
10727;SDS011;5415;59.322;18.246;2022-10-04T12:31:18;3.53;;;1.10;;
10727;SDS011;5415;59.322;18.246;2022-10-04T12:33:49;3.17;;;1.00;;
10727;SDS011;5415;59.322;18.246;2022-10-04T12:36:23;4.47;;;1.03;;
10727;SDS011;5415;59.322;18.246;2022-10-04T12:39:02;5.20;;;1.60;;
10727;SDS011;5415;59.322;18.246;2022-10-04T12:41:37;3.33;;;1.10;;
10727;SDS011;5415;59.322;18.246;2022-10-04T12:44:11;3.03;;;1.37;;
10727;SDS011;5415;59.322;18.246;2022-10-04T12:46:42;3.53;;;1.10;;
10727;SDS011;5415;59.322;18.246;2022-10-04T12:49:20;2.27;;;1.00;;
10727;SDS011;5415;59.322;18.246;2022-10-04T12:51:52;5.87;;;1.13;;
10727;SDS011;5415;59.322;18.246;2022-10-04T12:54:38;3.00;;;1.30;;
10727;SDS011;5415;59.322;18.246;2022-10-04T13:00:04;2.57;;;0.97;;
10727;SDS011;5415;59.322;18.246;2022-10-04T13:02:59;4.67;;;1.00;;
10727;SDS011;5415;59.322;18.246;2022-10-04T13:05:30;5.40;;;1.27;;
10727;SDS011;5415;59.322;18.246;2022-10-04T13:08:14;1.63;;;0.90;;
10727;SDS011;5415;59.322;18.246;2022-10-04T13:13:34;4.73;;;1.00;;
10727;SDS011;5415;59.322;18.246;2022-10-04T13:16:10;5.43;;;1.27;;
10727;SDS011;5415;59.322;18.246;2022-10-04T13:18:48;5.93;;;1.30;;
10727;SDS011;5415;59.322;18.246;2022-10-04T13:21:19;3.33;;;1.20;;
10727;SDS011;5415;59.322;18.246;2022-10-04T13:23:53;3.57;;;0.97;;
10727;SDS011;5415;59.322;18.246;2022-10-04T13:26:40;4.33;;;1.03;;
10727;SDS011;5415;59.322;18.246;2022-10-04T13:31:54;3.87;;;1.20;;
10727;SDS011;5415;59.322;18.246;2022-10-04T13:34:26;2.37;;;1.17;;
10727;SDS011;5415;59.322;18.246;2022-10-04T13:37:04;3.17;;;1.10;;
10727;SDS011;5415;59.322;18.246;2022-10-04T13:39:44;4.97;;;1.33;;
10727;SDS011;5415;59.322;18.246;2022-10-04T13:42:24;3.97;;;1.20;;
10727;SDS011;5415;59.322;18.246;2022-10-04T13:47:50;2.80;;;1.30;;
10727;SDS011;5415;59.322;18.246;2022-10-04T13:50:26;3.67;;;1.40;;
10727;SDS011;5415;59.322;18.246;2022-10-04T13:52:57;1.93;;;1.10;;
10727;SDS011;5415;59.322;18.246;2022-10-04T13:55:46;4.70;;;1.63;;
10727;SDS011;5415;59.322;18.246;2022-10-04T13:58:33;2.70;;;1.10;;
10727;SDS011;5415;59.322;18.246;2022-10-04T14:01:13;2.80;;;1.20;;
10727;SDS011;5415;59.322;18.246;2022-10-04T14:03:51;3.07;;;1.70;;
10727;SDS011;5415;59.322;18.246;2022-10-04T14:06:40;5.27;;;2.00;;
10727;SDS011;5415;59.322;18.246;2022-10-04T14:12:13;5.17;;;1.60;;
10727;SDS011;5415;59.322;18.246;2022-10-04T14:14:53;2.57;;;1.27;;
10727;SDS011;5415;59.322;18.246;2022-10-04T14:17:38;2.83;;;1.50;;
10727;SDS011;5415;59.322;18.246;2022-10-04T14:20:27;2.10;;;1.20;;
10727;SDS011;5415;59.322;18.246;2022-10-04T14:23:18;5.77;;;1.30;;
10727;SDS011;5415;59.322;18.246;2022-10-04T14:26:13;10.23;;;1.80;;
10727;SDS011;5415;59.322;18.246;2022-10-04T14:28:56;6.77;;;1.40;;
10727;SDS011;5415;59.322;18.246;2022-10-04T14:31:34;5.23;;;1.10;;
10727;SDS011;5415;59.322;18.246;2022-10-04T14:34:20;4.87;;;1.20;;
10727;SDS011;5415;59.322;18.246;2022-10-04T14:36:57;4.90;;;1.10;;
10727;SDS011;5415;59.322;18.246;2022-10-04T14:39:34;6.00;;;1.67;;
10727;SDS011;5415;59.322;18.246;2022-10-04T14:42:21;7.00;;;1.50;;
10727;SDS011;5415;59.322;18.246;2022-10-04T14:45:11;4.03;;;1.43;;
10727;SDS011;5415;59.322;18.246;2022-10-04T14:50:48;11.07;;;1.30;;
10727;SDS011;5415;59.322;18.246;2022-10-04T14:56:22;5.47;;;1.50;;
10727;SDS011;5415;59.322;18.246;2022-10-04T14:58:58;3.83;;;1.30;;
10727;SDS011;5415;59.322;18.246;2022-10-04T15:01:28;6.80;;;2.00;;
10727;SDS011;5415;59.322;18.246;2022-10-04T15:06:46;7.77;;;1.60;;
10727;SDS011;5415;59.322;18.246;2022-10-04T15:15:02;4.43;;;1.57;;
10727;SDS011;5415;59.322;18.246;2022-10-04T15:17:39;7.53;;;1.60;;
10727;SDS011;5415;59.322;18.246;2022-10-04T15:20:13;5.73;;;1.47;;
10727;SDS011;5415;59.322;18.246;2022-10-04T15:22:45;7.47;;;1.70;;
10727;SDS011;5415;59.322;18.246;2022-10-04T15:28:00;4.67;;;1.80;;
10727;SDS011;5415;59.322;18.246;2022-10-04T15:30:35;9.67;;;1.60;;
10727;SDS011;5415;59.322;18.246;2022-10-04T15:33:07;5.43;;;1.93;;
10727;SDS011;5415;59.322;18.246;2022-10-04T15:35:40;5.97;;;3.10;;
10727;SDS011;5415;59.322;18.246;2022-10-04T15:38:16;7.67;;;3.50;;
10727;SDS011;5415;59.322;18.246;2022-10-04T15:40:51;9.20;;;2.60;;
10727;SDS011;5415;59.322;18.246;2022-10-04T15:43:21;10.53;;;4.13;;
10727;SDS011;5415;59.322;18.246;2022-10-04T15:48:45;6.77;;;3.87;;
10727;SDS011;5415;59.322;18.246;2022-10-04T15:51:15;12.33;;;3.17;;
10727;SDS011;5415;59.322;18.246;2022-10-04T15:53:49;8.13;;;3.90;;
10727;SDS011;5415;59.322;18.246;2022-10-04T15:56:27;7.03;;;2.77;;
10727;SDS011;5415;59.322;18.246;2022-10-04T15:59:11;5.17;;;2.93;;
10727;SDS011;5415;59.322;18.246;2022-10-04T16:01:48;11.90;;;3.60;;
10727;SDS011;5415;59.322;18.246;2022-10-04T16:04:32;5.30;;;2.80;;
10727;SDS011;5415;59.322;18.246;2022-10-04T16:07:14;6.03;;;2.60;;
10727;SDS011;5415;59.322;18.246;2022-10-04T16:09:47;7.03;;;3.43;;
10727;SDS011;5415;59.322;18.246;2022-10-04T16:12:19;5.60;;;3.00;;
10727;SDS011;5415;59.322;18.246;2022-10-04T16:14:59;6.57;;;2.37;;
10727;SDS011;5415;59.322;18.246;2022-10-04T16:17:30;6.97;;;2.87;;
10727;SDS011;5415;59.322;18.246;2022-10-04T16:20:24;8.20;;;2.30;;
10727;SDS011;5415;59.322;18.246;2022-10-04T16:25:41;5.27;;;2.00;;
10727;SDS011;5415;59.322;18.246;2022-10-04T16:28:11;6.47;;;1.90;;
10727;SDS011;5415;59.322;18.246;2022-10-04T16:30:46;4.63;;;2.10;;
10727;SDS011;5415;59.322;18.246;2022-10-04T16:33:23;5.40;;;1.97;;
10727;SDS011;5415;59.322;18.246;2022-10-04T16:36:08;2.27;;;1.40;;
10727;SDS011;5415;59.322;18.246;2022-10-04T16:38:42;4.53;;;1.43;;
10727;SDS011;5415;59.322;18.246;2022-10-04T16:41:34;4.43;;;1.73;;
10727;SDS011;5415;59.322;18.246;2022-10-04T16:44:06;4.03;;;1.70;;
10727;SDS011;5415;59.322;18.246;2022-10-04T16:46:36;3.97;;;1.70;;
10727;SDS011;5415;59.322;18.246;2022-10-04T16:49:15;4.63;;;1.70;;
10727;SDS011;5415;59.322;18.246;2022-10-04T16:51:56;6.13;;;1.90;;
10727;SDS011;5415;59.322;18.246;2022-10-04T16:54:41;3.53;;;1.83;;
10727;SDS011;5415;59.322;18.246;2022-10-04T16:57:17;3.77;;;1.80;;
10727;SDS011;5415;59.322;18.246;2022-10-04T16:59:54;6.50;;;1.87;;
10727;SDS011;5415;59.322;18.246;2022-10-04T17:05:18;5.23;;;2.30;;
10727;SDS011;5415;59.322;18.246;2022-10-04T17:08:00;9.23;;;3.30;;
10727;SDS011;5415;59.322;18.246;2022-10-04T17:10:31;7.97;;;3.47;;
10727;SDS011;5415;59.322;18.246;2022-10-04T17:13:05;7.60;;;2.73;;
10727;SDS011;5415;59.322;18.246;2022-10-04T17:15:41;9.63;;;3.13;;
10727;SDS011;5415;59.322;18.246;2022-10-04T17:18:16;7.27;;;2.77;;
10727;SDS011;5415;59.322;18.246;2022-10-04T17:20:50;5.47;;;2.70;;
10727;SDS011;5415;59.322;18.246;2022-10-04T17:23:29;8.30;;;2.50;;
10727;SDS011;5415;59.322;18.246;2022-10-04T17:26:02;7.20;;;2.47;;
10727;SDS011;5415;59.322;18.246;2022-10-04T17:28:33;4.53;;;2.47;;
10727;SDS011;5415;59.322;18.246;2022-10-04T17:31:09;4.40;;;2.27;;
10727;SDS011;5415;59.322;18.246;2022-10-04T17:33:50;7.37;;;2.50;;
10727;SDS011;5415;59.322;18.246;2022-10-04T17:36:26;9.27;;;2.77;;
10727;SDS011;5415;59.322;18.246;2022-10-04T17:39:00;6.53;;;2.73;;
10727;SDS011;5415;59.322;18.246;2022-10-04T17:41:32;4.37;;;2.13;;
10727;SDS011;5415;59.322;18.246;2022-10-04T17:44:19;9.50;;;2.50;;
10727;SDS011;5415;59.322;18.246;2022-10-04T17:46:49;5.90;;;2.27;;
10727;SDS011;5415;59.322;18.246;2022-10-04T17:49:21;6.80;;;2.30;;
10727;SDS011;5415;59.322;18.246;2022-10-04T17:52:11;6.88;;;2.28;;